^^
Saratoga-Weather Station Historical Data
Daily Summary for September 28, 2022 Units:  English    Metric   Both
Daily Weekly Monthly Yearly Custom
  High: Low: Average:
Temperature: 54.9 °F 32 °F 47.8 °F
Dew Point: 48.9 °F 32 °F 45.1 °F
Humidity: 93% % 83%
Wind Speed: 17mph 0mph 3.6mph
Wind Gust: 17mph - -
Wind- - West
Pressure: 29.6 in 29.5 in -
Precipitation: 0.76 in    
Historical Graphs
 
 
Tabular Data for September 28, 2022
Time Temperature Dew Point Pressure Wind Wind Speed Wind Gust Humidity Rainfall Rate (Hourly) solar
00:02 50.2 °F 48 °F 29.5 in WSW 4.9 mph 12 mph 92% 0.04 in 0 W/m2
00:07 50.2 °F 48 °F 29.5 in West 8.1 mph 9 mph 92% 0.03 in 0 W/m2
00:12 50 °F 47.8 °F 29.5 in West 4 mph 10 mph 92% 0.02 in 0 W/m2
00:17 49.8 °F 47.7 °F 29.5 in West 4 mph 9 mph 92% 0.02 in 0 W/m2
00:22 49.8 °F 47.8 °F 29.5 in West 4 mph 7 mph 93% 0.02 in 0 W/m2
00:27 49.8 °F 47.7 °F 29.5 in West 4 mph 11 mph 92% 0.02 in 0 W/m2
00:32 49.6 °F 47.5 °F 29.5 in West 8.1 mph 9 mph 92% 0.02 in 0 W/m2
00:37 49.6 °F 47.7 °F 29.5 in West 8.9 mph 9 mph 93% 0.02 in 0 W/m2
00:42 49.6 °F 47.7 °F 29.5 in West 2.9 mph 6 mph 93% 0.02 in 0 W/m2
00:47 49.6 °F 47.7 °F 29.5 in SW 4 mph 10 mph 93% 0.02 in 0 W/m2
00:52 49.5 °F 47.5 °F 29.5 in WSW 4.9 mph 10 mph 93% 0.02 in 0 W/m2
00:57 49.5 °F 47.5 °F 29.5 in WSW 4.9 mph 7 mph 93% 0.02 in 0 W/m2
01:02 49.5 °F 47.5 °F 29.5 in West 6.9 mph 12 mph 93% 0.01 in 0 W/m2
01:07 49.5 °F 47.5 °F 29.5 in West 4 mph 9 mph 93% 0.01 in 0 W/m2
01:12 49.5 °F 47.5 °F 29.5 in WSW 4.9 mph 12 mph 93% 0 in 0 W/m2
01:17 49.5 °F 47.5 °F 29.5 in West 2.9 mph 14 mph 93% 0 in 0 W/m2
01:22 49.5 °F 47.5 °F 29.5 in WSW 4.9 mph 10 mph 93% 0 in 0 W/m2
01:27 49.5 °F 47.5 °F 29.5 in WNW 8.1 mph 11 mph 93% 0 in 0 W/m2
01:32 49.5 °F 47.5 °F 29.5 in WNW 4 mph 9 mph 93% 0 in 0 W/m2
01:37 49.5 °F 47.5 °F 29.5 in West 12.1 mph 13 mph 93% 0 in 0 W/m2
01:42 49.5 °F 47.3 °F 29.5 in West 4 mph 9 mph 92% 0 in 0 W/m2
01:47 49.5 °F 47.3 °F 29.5 in West 6.9 mph 12 mph 92% 0 in 0 W/m2
01:52 49.5 °F 47.5 °F 29.5 in WNW 2.9 mph 7 mph 93% 0 in 0 W/m2
01:57 49.5 °F 47.5 °F 29.5 in NW 12 mph 12 mph 93% 0 in 0 W/m2
02:02 49.5 °F 47.5 °F 29.5 in WNW 4.9 mph 11 mph 93% 0.01 in 0 W/m2
02:07 49.3 °F 47.3 °F 29.5 in West 6.9 mph 8 mph 93% 0.01 in 0 W/m2
02:12 49.3 °F 47.3 °F 29.5 in WNW 15 mph 15 mph 93% 0.01 in 0 W/m2
02:17 49.3 °F 47.3 °F 29.5 in West 2 mph 7 mph 93% 0.01 in 0 W/m2
02:22 49.3 °F 47.3 °F 29.5 in WSW 8.9 mph 10 mph 93% 0.01 in 0 W/m2
02:27 49.5 °F 47.5 °F 29.5 in WNW 8.1 mph 8 mph 93% 0.01 in 0 W/m2
02:32 49.3 °F 47.1 °F 29.5 in WNW 4.9 mph 10 mph 92% 0.01 in 0 W/m2
02:37 49.3 °F 47.1 °F 29.5 in West 6.9 mph 11 mph 92% 0.01 in 0 W/m2
02:42 49.3 °F 47.1 °F 29.5 in West 2.9 mph 9 mph 92% 0.01 in 0 W/m2
02:47 49.3 °F 47.1 °F 29.5 in WSW 2.9 mph 9 mph 92% 0.02 in 0 W/m2
02:52 49.3 °F 47.1 °F 29.5 in NW 4.9 mph 8 mph 92% 0.02 in 0 W/m2
02:57 49.1 °F 46.9 °F 29.5 in West 2.9 mph 8 mph 92% 0.01 in 0 W/m2
03:02 48.9 °F 46.8 °F 29.5 in West 6 mph 10 mph 92% 0.02 in 0 W/m2
03:07 48.9 °F 46.8 °F 29.5 in West 6.9 mph 10 mph 92% 0.02 in 0 W/m2
03:12 48.9 °F 46.8 °F 29.5 in WSW 4 mph 7 mph 92% 0.02 in 0 W/m2
03:17 48.9 °F 46.8 °F 29.5 in West 2 mph 10 mph 92% 0.02 in 0 W/m2
03:22 48.7 °F 46.6 °F 29.5 in WNW 11 mph 16 mph 92% 0.02 in 0 W/m2
03:27 48.7 °F 46.6 °F 29.5 in West 8.1 mph 9 mph 92% 0.02 in 0 W/m2
03:33 48.7 °F 46.6 °F 29.5 in West 4 mph 16 mph 92% 0.02 in 0 W/m2
03:38 48.7 °F 46.6 °F 29.5 in WSW 2.9 mph 7 mph 92% 0.02 in 0 W/m2
03:43 48.6 °F 46.4 °F 29.5 in West 2 mph 10 mph 92% 0.02 in 0 W/m2
03:48 48.6 °F 46.4 °F 29.5 in West 4 mph 9 mph 92% 0.01 in 0 W/m2
03:53 48.6 °F 46.4 °F 29.5 in West 6 mph 8 mph 92% 0.01 in 0 W/m2
03:58 48.4 °F 46.2 °F 29.5 in WNW 6 mph 10 mph 92% 0.01 in 0 W/m2
04:03 48.4 °F 46.2 °F 29.5 in West 6 mph 9 mph 92% 0 in 0 W/m2
04:08 48.4 °F 46.2 °F 29.5 in West 8.1 mph 9 mph 92% 0 in 0 W/m2
04:13 48.2 °F 46 °F 29.5 in WSW 4 mph 10 mph 92% 0 in 0 W/m2
04:18 48 °F 45.9 °F 29.5 in West 8.1 mph 10 mph 92% 0 in 0 W/m2
04:23 48 °F 46 °F 29.5 in West 4 mph 8 mph 93% 0.01 in 0 W/m2
04:28 47.8 °F 45.9 °F 29.5 in West 4 mph 9 mph 93% 0.01 in 0 W/m2
04:33 47.8 °F 45.9 °F 29.5 in SW 17 mph 17 mph 93% 0.01 in 0 W/m2
04:38 47.8 °F 45.9 °F 29.5 in NW 4 mph 14 mph 93% 0.01 in 0 W/m2
04:43 47.8 °F 45.9 °F 29.5 in SW 8.9 mph 12 mph 93% 0.01 in 0 W/m2
04:48 47.8 °F 45.9 °F 29.5 in WNW 4.9 mph 8 mph 93% 0.01 in 0 W/m2
04:53 47.8 °F 45.9 °F 29.5 in WSW 2.9 mph 13 mph 93% 0.01 in 0 W/m2
04:58 47.8 °F 45.9 °F 29.5 in West 4 mph 12 mph 93% 0.01 in 0 W/m2
05:03 47.8 °F 45.9 °F 29.5 in WSW 6.9 mph 11 mph 93% 0.01 in 0 W/m2
05:08 47.8 °F 45.7 °F 29.5 in WNW 6.9 mph 8 mph 92% 0.01 in 0 W/m2
05:13 47.8 °F 45.9 °F 29.5 in NW 2.9 mph 9 mph 93% 0.02 in 0 W/m2
05:18 47.8 °F 45.9 °F 29.5 in WNW 6.9 mph 10 mph 93% 0.02 in 0 W/m2
05:23 47.8 °F 45.7 °F 29.5 in WNW 4 mph 7 mph 92% 0.01 in 0 W/m2
05:28 47.8 °F 45.7 °F 29.5 in West 6.9 mph 8 mph 92% 0.01 in 0 W/m2
05:33 47.7 °F 45.5 °F 29.5 in West 14.1 mph 14 mph 92% 0.01 in 0 W/m2
05:38 47.7 °F 45.5 °F 29.5 in WSW 12.1 mph 12 mph 92% 0.01 in 0 W/m2
05:43 47.5 °F 45.3 °F 29.5 in WSW 14 mph 14 mph 92% 0.01 in 0 W/m2
05:48 47.5 °F 45.3 °F 29.5 in West 8.1 mph 15 mph 92% 0.01 in 0 W/m2
05:53 47.5 °F 45.3 °F 29.5 in West 2.9 mph 12 mph 92% 0.01 in 0 W/m2
05:58 47.5 °F 45.3 °F 29.5 in West 4 mph 15 mph 92% 0.02 in 0 W/m2
06:03 47.5 °F 45.3 °F 29.5 in WNW 4.9 mph 10 mph 92% 0.02 in 0 W/m2
06:08 47.5 °F 45.5 °F 29.5 in WNW 4.9 mph 6 mph 93% 0.02 in 0 W/m2
06:13 47.5 °F 45.5 °F 29.5 in West 8.1 mph 10 mph 93% 0.02 in 0 W/m2
06:18 47.5 °F 45.5 °F 29.5 in WSW 4 mph 8 mph 93% 0.02 in 0 W/m2
06:23 47.5 °F 45.5 °F 29.5 in SW 4 mph 10 mph 93% 0.02 in 0 W/m2
06:28 47.3 °F 45.3 °F 29.5 in West 2.9 mph 6 mph 93% 0.02 in 0 W/m2
06:33 47.5 °F 45.5 °F 29.5 in West 2.9 mph 7 mph 93% 0.02 in 0 W/m2
06:38 47.5 °F 45.5 °F 29.5 in West 2 mph 9 mph 93% 0.02 in 0 W/m2
06:43 47.5 °F 45.5 °F 29.5 in WNW 4 mph 8 mph 93% 0.02 in 0 W/m2
06:48 47.7 °F 45.7 °F 29.5 in West 8.1 mph 9 mph 93% 0.02 in 0 W/m2
06:53 47.7 °F 45.7 °F 29.5 in West 6.9 mph 9 mph 93% 0.02 in 0 W/m2
06:58 47.7 °F 45.7 °F 29.5 in WNW 8.1 mph 9 mph 93% 0.01 in 0 W/m2
07:03 47.7 °F 45.5 °F 29.5 in WSW 4 mph 7 mph 92% 0.01 in 0 W/m2
07:08 47.7 °F 45.5 °F 29.6 in West 6.9 mph 9 mph 92% 0.01 in 0 W/m2
07:13 47.7 °F 45.5 °F 29.5 in West 4 mph 11 mph 92% 0 in 0 W/m2
07:18 47.7 °F 45.5 °F 29.6 in WNW 2.9 mph 9 mph 92% 0 in 0 W/m2
07:23 47.7 °F 45.5 °F 29.6 in WNW 4 mph 5 mph 92% 0 in 0 W/m2
07:28 47.7 °F 45.5 °F 29.6 in WSW 4 mph 7 mph 92% 0 in 0 W/m2
07:33 47.8 °F 45.7 °F 29.6 in WNW 2 mph 7 mph 92% 0 in 0 W/m2
07:38 47.8 °F 45.9 °F 29.6 in WNW 4 mph 6 mph 93% 0 in 0 W/m2
07:43 47.8 °F 45.9 °F 29.6 in WNW 2 mph 5 mph 93% 0 in 0 W/m2
07:48 47.8 °F 45.9 °F 29.6 in West 4 mph 11 mph 93% 0 in 0 W/m2
07:53 47.8 °F 45.9 °F 29.6 in West 2 mph 8 mph 93% 0 in 0 W/m2
07:58 47.8 °F 45.9 °F 29.6 in NW 4 mph 11 mph 93% 0 in 0 W/m2
08:03 47.8 °F 45.9 °F 29.6 in NW 2 mph 4 mph 93% 0 in 5 W/m2
08:08 47.8 °F 45.7 °F 29.6 in WNW 2.9 mph 8 mph 92% 0 in 9 W/m2
08:13 47.8 °F 45.7 °F 29.6 in West 2.9 mph 8 mph 92% 0 in 16 W/m2
08:18 47.8 °F 45.7 °F 29.6 in WNW 4 mph 5 mph 92% 0 in 16 W/m2
08:23 47.7 °F 45.5 °F 29.6 in West 2 mph 10 mph 92% 0 in 14 W/m2
08:28 47.7 °F 45.5 °F 29.6 in West 4 mph 4 mph 92% 0 in 25 W/m2
08:33 47.7 °F 45.5 °F 29.6 in NW 2.9 mph 10 mph 92% 0 in 25 W/m2
08:38 47.7 °F 45.5 °F 29.6 in West 8.1 mph 8 mph 92% 0 in 26 W/m2
08:43 47.7 °F 45.5 °F 29.6 in NW 2 mph 2 mph 92% 0 in 60 W/m2
08:48 47.8 °F 45.7 °F 29.6 in West 2.9 mph 7 mph 92% 0 in 53 W/m2
08:53 47.8 °F 45.7 °F 29.6 in NW 2 mph 10 mph 92% 0 in 33 W/m2
08:58 47.8 °F 45.7 °F 29.6 in WSW 2 mph 8 mph 92% 0 in 37 W/m2
09:03 47.8 °F 45.7 °F 29.6 in WSW 4 mph 8 mph 92% 0 in 39 W/m2
09:08 47.8 °F 45.3 °F 29.6 in WSW 4 mph 7 mph 91% 0 in 39 W/m2
09:13 47.7 °F 45.1 °F 29.6 in WSW 2 mph 8 mph 91% 0 in 47 W/m2
09:18 47.7 °F 45.5 °F 29.6 in WNW 4 mph 6 mph 92% 0 in 60 W/m2
09:23 47.7 °F 45.5 °F 29.6 in WNW 10.1 mph 10 mph 92% 0 in 58 W/m2
09:28 47.7 °F 45.1 °F 29.6 in WNW 4 mph 7 mph 91% 0 in 72 W/m2
09:33 47.7 °F 45.1 °F 29.6 in West 2.9 mph 6 mph 91% 0 in 77 W/m2
09:38 47.7 °F 45.1 °F 29.6 in West 2 mph 3 mph 91% 0 in 77 W/m2
09:43 47.7 °F 45.1 °F 29.6 in West 4 mph 8 mph 91% 0 in 76 W/m2
09:48 47.7 °F 45.1 °F 29.6 in WNW 2.9 mph 8 mph 91% 0.01 in 35 W/m2
09:53 47.5 °F 45 °F 29.6 in West 4 mph 13 mph 91% 0.02 in 30 W/m2
09:58 47.1 °F 44.6 °F 29.6 in West 4 mph 8 mph 91% 0.04 in 33 W/m2
10:03 46.9 °F 44.8 °F 29.6 in SW 0.9 mph 13 mph 92% 0.05 in 32 W/m2
10:08 46.9 °F 44.8 °F 29.6 in West 0.9 mph 3 mph 92% 0.06 in 30 W/m2
10:13 46.8 °F 44.6 °F 29.6 in WSW 2.9 mph 8 mph 92% 0.06 in 47 W/m2
10:18 46.6 °F 44.4 °F 29.6 in WNW 2 mph 4 mph 92% 0.06 in 107 W/m2
10:23 46.6 °F 44.4 °F 29.6 in SW 2 mph 3 mph 92% 0.07 in 69 W/m2
10:28 46.6 °F 44.4 °F 29.6 in West 2 mph 5 mph 92% 0.08 in 74 W/m2
10:33 46.8 °F 44.6 °F 29.6 in West 4 mph 4 mph 92% 0.08 in 146 W/m2
10:38 46.9 °F 45 °F 29.6 in WNW 2.9 mph 4 mph 93% 0.08 in 262 W/m2
10:43 47.3 °F 45.3 °F 29.6 in South 2.9 mph 3 mph 93% 0.08 in 158 W/m2
10:48 47.7 °F 45.7 °F 29.6 in NW 2 mph 4 mph 93% 0.07 in 213 W/m2
10:53 48 °F 46 °F 29.6 in West 0.9 mph 4 mph 93% 0.07 in 102 W/m2
10:58 48 °F 46 °F 29.6 in West 0.9 mph 2 mph 93% 0.08 in 123 W/m2
11:03 48 °F 46 °F 29.6 in West 0.9 mph 3 mph 93% 0.09 in 65 W/m2
11:08 48 °F 46 °F 29.6 in WNW 4 mph 7 mph 93% 0.11 in 63 W/m2
11:13 48 °F 46 °F 29.6 in West 2 mph 3 mph 93% 0.16 in 63 W/m2
11:18 48 °F 46 °F 29.6 in West 4 mph 6 mph 93% 0.2 in 70 W/m2
11:23 47.7 °F 45.5 °F 29.6 in WNW 2.9 mph 5 mph 92% 0.2 in 56 W/m2
11:28 47.3 °F 44.8 °F 29.6 in West 4 mph 10 mph 91% 0.2 in 63 W/m2
11:33 47.5 °F 45 °F 29.6 in WSW 4 mph 6 mph 91% 0.2 in 74 W/m2
11:38 47.5 °F 45 °F 29.6 in West 2 mph 5 mph 91% 0.2 in 47 W/m2
11:43 47.7 °F 45.5 °F 29.6 in WSW 4 mph 4 mph 92% 0.2 in 62 W/m2
11:48 48 °F 46 °F 29.6 in NW 2 mph 7 mph 93% 0.2 in 97 W/m2
11:53 48.7 °F 46.8 °F 29.6 in West 2.9 mph 5 mph 93% 0.18 in 172 W/m2
11:58 49.5 °F 47.5 °F 29.6 in West 6 mph 9 mph 93% 0.16 in 197 W/m2
12:03 49.8 °F 47.8 °F 29.6 in WSW 2 mph 7 mph 93% 0.13 in 105 W/m2
12:08 50 °F 47.8 °F 29.6 in WNW 2 mph 3 mph 92% 0.11 in 120 W/m2
12:13 50.2 °F 47.7 °F 29.6 in WNW 2 mph 10 mph 91% 0.06 in 169 W/m2
12:18 50.4 °F 47.5 °F 29.6 in WSW 4 mph 7 mph 90% 0.01 in 200 W/m2
12:23 50.4 °F 47.3 °F 29.6 in WNW 6.9 mph 13 mph 89% 0 in 229 W/m2
12:28 50.4 °F 46.9 °F 29.6 in WNW 4.9 mph 11 mph 88% 0 in 190 W/m2
12:33 50.4 °F 46.6 °F 29.6 in WNW 2 mph 11 mph 87% 0 in 290 W/m2
12:38 50.4 °F 46.6 °F 29.6 in WNW 2 mph 10 mph 87% 0 in 287 W/m2
12:43 50.4 °F 46.6 °F 29.6 in WNW 6 mph 11 mph 87% 0 in 216 W/m2
12:48 50.4 °F 46.6 °F 29.6 in West 2.9 mph 7 mph 87% 0 in 262 W/m2
12:53 50.5 °F 46.8 °F 29.6 in West 6 mph 11 mph 87% 0 in 638 W/m2
12:58 51.1 °F 47.7 °F 29.6 in WNW 2.9 mph 5 mph 88% 0 in 657 W/m2
13:03 51.6 °F 47.5 °F 29.6 in WSW 6.9 mph 10 mph 86% 0 in 144 W/m2
13:08 51.8 °F 47.5 °F 29.6 in WNW 4 mph 9 mph 85% 0 in 429 W/m2
13:13 51.6 °F 46.9 °F 29.6 in West 10.1 mph 11 mph 84% 0 in 162 W/m2
13:18 51.6 °F 46.2 °F 29.6 in West 4 mph 13 mph 82% 0 in 162 W/m2
13:23 51.8 °F 46.4 °F 29.6 in NW 6.9 mph 9 mph 82% 0 in 237 W/m2
13:28 52 °F 46.6 °F 29.6 in WNW 4 mph 11 mph 82% 0 in 135 W/m2
13:33 51.8 °F 46.4 °F 29.6 in West 8.1 mph 8 mph 82% 0 in 91 W/m2
13:38 51.6 °F 46.6 °F 29.5 in WNW 8.9 mph 9 mph 83% 0 in 244 W/m2
13:43 51.6 °F 46.9 °F 29.5 in SW 2 mph 8 mph 84% 0 in 132 W/m2
13:48 51.4 °F 47.1 °F 29.6 in West 2.9 mph 8 mph 85% 0.01 in 100 W/m2
13:54 50.7 °F 46.8 °F 29.6 in WNW 6 mph 6 mph 86% 0.03 in 156 W/m2
13:59 50.5 °F 47.1 °F 29.5 in NW 2.9 mph 3 mph 88% 0.04 in 229 W/m2
14:04 50.7 °F 47.8 °F 29.6 in WNW 2.9 mph 9 mph 90% 0.04 in 258 W/m2
14:09 50.9 °F 48 °F 29.5 in WSW 4.9 mph 7 mph 90% 0.04 in 116 W/m2
14:14 50.5 °F 46.8 °F 29.6 in West 2.9 mph 13 mph 87% 0.06 in 35 W/m2
14:19 48.9 °F 45 °F 29.6 in WSW 4.9 mph 11 mph 86% 0.13 in 56 W/m2
14:24 47.7 °F 44.2 °F 29.6 in West 2.9 mph 12 mph 88% 0.14 in 105 W/m2
14:29 47.1 °F 44.4 °F 29.6 in WSW 8.1 mph 8 mph 90% 0.14 in 107 W/m2
14:34 47.1 °F 44.6 °F 29.6 in West 2.9 mph 9 mph 91% 0.14 in 149 W/m2
14:39 47.1 °F 44.6 °F 29.6 in WSW 4 mph 7 mph 91% 0.14 in 141 W/m2
14:44 47.5 °F 45.3 °F 29.6 in WSW 8.9 mph 11 mph 92% 0.15 in 135 W/m2
14:49 47.5 °F 45 °F 29.6 in NW 4 mph 9 mph 91% 0.14 in 134 W/m2
14:54 47.7 °F 45.1 °F 29.6 in WNW 4 mph 7 mph 91% 0.12 in 195 W/m2
14:59 48.4 °F 46.2 °F 29.6 in WNW 4 mph 9 mph 92% 0.11 in 612 W/m2
15:04 48.9 °F 46.4 °F 29.6 in West 6 mph 10 mph 91% 0.11 in 577 W/m2
15:09 49.5 °F 46.9 °F 29.5 in SW 4 mph 8 mph 91% 0.11 in 573 W/m2
15:14 50.2 °F 47.3 °F 29.5 in WSW 2.9 mph 10 mph 90% 0.09 in 564 W/m2
15:19 50.9 °F 47.5 °F 29.5 in West 6 mph 9 mph 88% 0.02 in 471 W/m2
15:24 51.4 °F 47.7 °F 29.5 in WSW 11 mph 11 mph 87% 0.01 in 156 W/m2
15:29 51.3 °F 47.3 °F 29.5 in Calm   9 mph 86% 0.01 in 72 W/m2
15:34 51.3 °F 47.5 °F 29.5 in West 2 mph 7 mph 87% 0.01 in 563 W/m2
15:39 52 °F 48.2 °F 29.5 in WNW 4 mph 7 mph 87% 0.01 in 715 W/m2
15:44 52.7 °F 48.6 °F 29.5 in West 4 mph 7 mph 86% 0 in 652 W/m2
15:49 53.6 °F 48.6 °F 29.5 in West 8.9 mph 10 mph 83% 0 in 626 W/m2
15:54 53.4 °F 47.7 °F 29.5 in NNE 4 mph 9 mph 81% 0 in 269 W/m2
15:59 53.1 °F 47.3 °F 29.5 in NW 4 mph 8 mph 81% 0 in 97 W/m2
16:04 53.1 °F 47.3 °F 29.6 in WNW 4 mph 9 mph 81% 0 in 512 W/m2
16:09 52.9 °F 47.3 °F 29.5 in WNW 0.9 mph 3 mph 81% 0 in 67 W/m2
16:14 52.5 °F 47.1 °F 29.6 in West 2 mph 8 mph 82% 0 in 118 W/m2
16:19 52.3 °F 46.4 °F 29.6 in West 2.9 mph 10 mph 80% 0 in 67 W/m2
16:24 52 °F 46.4 °F 29.6 in WNW 2 mph 7 mph 81% 0 in 160 W/m2
16:29 52 °F 46.4 °F 29.6 in WNW 2.9 mph 9 mph 81% 0 in 163 W/m2
16:34 52.2 °F 46.8 °F 29.6 in WNW 2.9 mph 6 mph 82% 0 in 452 W/m2
16:39 52.7 °F 47.3 °F 29.6 in WNW 0.9 mph 2 mph 82% 0 in 420 W/m2
16:44 53.4 °F 48 °F 29.5 in WNW 0.9 mph 2 mph 82% 0 in 464 W/m2
16:49 54 °F 48.9 °F 29.6 in Calm   3 mph 83% 0 in 492 W/m2
16:54 54.3 °F 48.6 °F 29.6 in WNW 0.9 mph 2 mph 81% 0 in 144 W/m2
16:59 54.3 °F 47.7 °F 29.6 in West 2.9 mph 7 mph 78% 0 in 118 W/m2
17:04 54 °F 46.9 °F 29.6 in WNW 0.9 mph 7 mph 77% 0 in 390 W/m2
17:09 54.3 °F 46.9 °F 29.6 in SW 2.9 mph 9 mph 76% 0 in 454 W/m2
17:14 54.7 °F 46.9 °F 29.6 in West 6 mph 8 mph 75% 0 in 462 W/m2
17:19 54.9 °F 46.8 °F 29.6 in West 6 mph 9 mph 74% 0 in 98 W/m2
17:24 54.3 °F 46.2 °F 29.6 in WSW 6.9 mph 9 mph 74% 0 in 90 W/m2
17:29 53.8 °F 45.3 °F 29.6 in West 6.9 mph 11 mph 73% 0 in 84 W/m2
17:34 53.4 °F 45.3 °F 29.6 in West 6.9 mph 8 mph 74% 0 in 72 W/m2
17:39 53.2 °F 45.9 °F 29.6 in NW 0.9 mph 7 mph 76% 0 in 70 W/m2
17:44 52.9 °F 45.9 °F 29.6 in WNW 2 mph 6 mph 77% 0 in 63 W/m2
17:49 52.5 °F 45.9 °F 29.6 in SW 4.9 mph 5 mph 78% 0 in 83 W/m2
17:54 52.5 °F 45.9 °F 29.6 in West 2.9 mph 4 mph 78% 0 in 62 W/m2
17:59 52.5 °F 46.6 °F 29.6 in West 2 mph 4 mph 80% 0 in 37 W/m2
18:04 52.5 °F 46.6 °F 29.6 in West 2 mph 3 mph 80% 0 in 32 W/m2
18:09 52.3 °F 46.4 °F 29.6 in West 2.9 mph 4 mph 80% 0 in 25 W/m2
18:14 52.3 °F 46.9 °F 29.6 in West 0.9 mph 2 mph 82% 0 in 32 W/m2
18:19 52.2 °F 46.8 °F 29.6 in West 4 mph 4 mph 82% 0 in 16 W/m2
18:24 52.2 °F 47.5 °F 29.6 in Calm   1 mph 84% 0 in 9 W/m2
18:29 52 °F 47.3 °F 29.6 in Calm   1 mph 84% 0.01 in 7 W/m2
18:34 51.8 °F 47.7 °F 29.6 in WNW 0.9 mph 1 mph 86% 0.02 in 5 W/m2
18:39 51.6 °F 47.8 °F 29.6 in Calm     87% 0.02 in 0 W/m2
18:44 51.3 °F 47.8 °F 29.6 in WNW 0.9 mph 2 mph 88% 0.03 in 0 W/m2
18:49 51.1 °F 48 °F 29.6 in WNW 0.9 mph 3 mph 89% 0.05 in 0 W/m2
18:54 50.5 °F 47.5 °F 29.6 in Calm   3 mph 89% 0.08 in 0 W/m2
18:59 50.4 °F 47.5 °F 29.6 in Calm   2 mph 90% 0.11 in 26 W/m2
19:04 49.8 °F 46.9 °F 29.6 in West 2 mph 6 mph 90% 0.11 in 9 W/m2
19:09 49.6 °F 46.8 °F 29.6 in WNW 2 mph 4 mph 90% 0.11 in 5 W/m2
19:14 49.5 °F 46.6 °F 29.6 in WSW 2 mph 4 mph 90% 0.11 in 0 W/m2
19:19 49.3 °F 46.2 °F 29.6 in WSW 0.9 mph 6 mph 89% 0.11 in 0 W/m2
19:24 48.9 °F 45.9 °F 29.6 in Calm   2 mph 89% 0.11 in 0 W/m2
19:29 48.7 °F 45.7 °F 29.6 in Calm   2 mph 89% 0.1 in 0 W/m2
19:34 48.6 °F 45.5 °F 29.6 in Calm   2 mph 89% 0.09 in 0 W/m2
19:39 48.4 °F 45.3 °F 29.6 in Calm   2 mph 89% 0.09 in 0 W/m2
19:44 48.4 °F 45.5 °F 29.6 in WNW 0.9 mph 2 mph 90% 0.08 in 0 W/m2
19:49 48 °F 45.1 °F 29.6 in Calm   2 mph 90% 0.06 in 0 W/m2
19:54 47.8 °F 45 °F 29.5 in Calm   1 mph 90% 0.03 in 0 W/m2
19:59 47.8 °F 45 °F 29.5 in Calm   1 mph 90% 0 in 0 W/m2
20:04 47.7 °F 45 °F 29.5 in SW 2 mph 3 mph 90% 0 in 0 W/m2
20:09 47.7 °F 45 °F 29.5 in WNW 2 mph 2 mph 90% 0 in 0 W/m2
20:14 47.7 °F 45 °F 29.5 in Calm   1 mph 90% 0 in 0 W/m2
20:19 47.7 °F 45 °F 29.5 in Calm   3 mph 90% 0 in 0 W/m2
20:24 47.7 °F 45 °F 29.5 in Calm   1 mph 90% 0 in 0 W/m2
20:29 47.7 °F 45.1 °F 29.5 in Calm   3 mph 91% 0 in 0 W/m2
20:34 47.7 °F 45.1 °F 29.5 in Calm   2 mph 91% 0 in 0 W/m2
20:39 47.5 °F 45 °F 29.5 in Calm   1 mph 91% 0 in 0 W/m2
20:44 47.5 °F 45 °F 29.5 in Calm   2 mph 91% 0 in 0 W/m2
20:49 47.5 °F 45 °F 29.5 in Calm   1 mph 91% 0 in 0 W/m2
20:54 47.5 °F 45 °F 29.5 in North 0.9 mph 3 mph 91% 0 in 0 W/m2
20:59 47.3 °F 44.8 °F 29.5 in Calm   2 mph 91% 0 in 0 W/m2
21:04 47.1 °F 45 °F 29.5 in Calm   3 mph 92% 0 in 0 W/m2
21:09 47.1 °F 45 °F 29.5 in WSW 0.9 mph 1 mph 92% 0 in 0 W/m2
21:14 47.1 °F 45 °F 29.5 in Calm   2 mph 92% 0 in 0 W/m2
21:19 47.3 °F 45.1 °F 29.5 in WNW 2 mph 2 mph 92% 0 in 0 W/m2
21:24 47.5 °F 45.3 °F 29.5 in East 0.9 mph 1 mph 92% 0.01 in 0 W/m2
21:29 47.7 °F 45.5 °F 29.5 in North 0.9 mph 2 mph 92% 0.01 in 0 W/m2
21:34 47.7 °F 45.5 °F 29.5 in ESE 2 mph 3 mph 92% 0.01 in 0 W/m2
21:40 47.7 °F 45.5 °F 29.5 in SW 0.9 mph 1 mph 92% 0.01 in 0 W/m2
21:45 47.7 °F 45.5 °F 29.5 in West 0.9 mph 4 mph 92% 0.01 in 0 W/m2
21:50 32 °F 32 °F 29.5 in WSW 0.9 mph 2 mph % 0.01 in W/m2
21:55 32 °F 32 °F 29.5 in NNW 0.9 mph 2 mph % 0.01 in W/m2
22:00 32 °F 32 °F 29.5 in Calm   1 mph % 0.01 in W/m2
22:05 32 °F 32 °F 29.5 in Calm   2 mph % 0.01 in W/m2
22:10 32 °F 32 °F 29.5 in East 2 mph 3 mph % 0.01 in W/m2
22:15 32 °F 32 °F 29.5 in Calm   1 mph % 0.01 in W/m2
22:20 32 °F 32 °F 29.5 in SSW 0.9 mph 2 mph % 0.01 in W/m2
22:25 32 °F 32 °F 29.5 in South 2 mph 2 mph % 0 in W/m2
22:30 32 °F 32 °F 29.5 in Calm   3 mph % 0 in W/m2
22:35 32 °F 32 °F 29.5 in Calm   1 mph % 0 in W/m2
22:40 32 °F 32 °F 29.5 in ESE 0.9 mph 2 mph % 0 in W/m2
22:45 32 °F 32 °F 29.5 in Calm   1 mph % 0 in W/m2
22:50 32 °F 32 °F 29.5 in Calm   2 mph % 0 in W/m2
22:55 32 °F 32 °F 29.5 in Calm   2 mph % 0 in W/m2
23:00 32 °F 32 °F 29.5 in Calm   2 mph % 0 in W/m2
23:05 32 °F 32 °F 29.5 in NE 0.9 mph 4 mph % 0 in W/m2
23:10 32 °F 32 °F 29.5 in NNW 2 mph 5 mph % 0 in W/m2
23:15 32 °F 32 °F 29.5 in WNW 2 mph 6 mph % 0 in W/m2
23:20 32 °F 32 °F 29.5 in NE 2 mph 3 mph % 0 in W/m2
23:25 32 °F 32 °F 29.5 in North 2 mph 2 mph % 0 in W/m2
23:30 32 °F 32 °F 29.5 in SW 0.9 mph 2 mph % 0 in W/m2
23:35 32 °F 32 °F 29.5 in West 0.9 mph 3 mph % 0 in W/m2
23:40 48.9 °F 46.9 °F 29.5 in NNW 0.9 mph 2 mph 93% 0.1 in 0 W/m2
23:45 49.1 °F 47.1 °F 29.5 in NW 2 mph 2 mph 93% 0.13 in 0 W/m2
23:50 49.1 °F 47.1 °F 29.5 in West 2 mph 2 mph 93% 0.14 in 0 W/m2
23:55 49.1 °F 47.1 °F 29.5 in Calm   8 mph 93% 0.16 in 0 W/m2
Juneau County Weather
Compliments of Weather Underground - 4 mb